createdAt,value
2019-03-15T00:00:26.354Z,3.77
2019-03-15T00:02:54.885Z,3.20
2019-03-15T00:05:32.095Z,3.58
2019-03-15T00:08:00.518Z,3.22
2019-03-15T00:10:28.946Z,3.25
2019-03-15T00:12:57.378Z,3.27
2019-03-15T00:15:25.830Z,3.47
2019-03-15T00:17:54.326Z,3.62
2019-03-15T00:20:22.898Z,3.40
2019-03-15T00:23:10.683Z,3.98
2019-03-15T00:25:39.153Z,4.50
2019-03-15T00:28:07.647Z,3.75
2019-03-15T00:30:36.130Z,3.40
2019-03-15T00:33:04.688Z,4.25
2019-03-15T00:35:34.256Z,4.87
2019-03-15T00:38:02.677Z,3.67
2019-03-15T00:40:31.142Z,3.10
2019-03-15T00:42:59.600Z,3.75
2019-03-15T00:45:28.086Z,3.80
2019-03-15T00:47:56.564Z,3.67
2019-03-15T00:50:26.626Z,3.30
2019-03-15T00:52:55.067Z,3.33
2019-03-15T00:55:23.498Z,3.80
2019-03-15T00:57:51.923Z,3.42
2019-03-15T01:00:20.518Z,3.22
2019-03-15T01:02:49.148Z,4.03
2019-03-15T01:05:17.578Z,3.77
2019-03-15T01:07:46.036Z,3.83
2019-03-15T01:10:14.485Z,3.85
2019-03-15T01:12:42.927Z,4.30
2019-03-15T01:15:14.550Z,3.95
2019-03-15T01:17:42.963Z,4.28
2019-03-15T01:20:19.800Z,3.92
2019-03-15T01:22:48.328Z,4.05
2019-03-15T01:25:16.742Z,3.72
2019-03-15T01:27:45.219Z,3.92
2019-03-15T01:30:13.843Z,3.50
2019-03-15T01:32:42.343Z,4.12
2019-03-15T01:35:10.839Z,3.65
2019-03-15T01:37:39.249Z,4.05
2019-03-15T01:40:08.303Z,3.37
2019-03-15T01:42:36.777Z,3.80
2019-03-15T01:45:06.399Z,3.42
2019-03-15T01:47:34.878Z,3.52
2019-03-15T01:50:04.274Z,4.20
2019-03-15T01:52:33.468Z,3.50
2019-03-15T01:55:02.077Z,3.33
2019-03-15T01:57:30.534Z,3.40
2019-03-15T01:59:58.984Z,3.40
2019-03-15T02:02:27.393Z,3.58
2019-03-15T02:04:55.985Z,2.90
2019-03-15T02:07:24.431Z,3.83
2019-03-15T02:09:52.890Z,3.33
2019-03-15T02:12:21.881Z,4.15
2019-03-15T02:14:50.485Z,3.10
2019-03-15T02:17:18.888Z,3.62
2019-03-15T02:19:47.315Z,3.80
2019-03-15T02:22:15.805Z,3.33
2019-03-15T02:24:44.306Z,4.00
2019-03-15T02:27:13.100Z,3.92
2019-03-15T02:29:41.522Z,3.70
2019-03-15T02:32:10.158Z,4.03
2019-03-15T02:34:38.683Z,3.35
2019-03-15T02:37:07.275Z,3.52
2019-03-15T02:39:35.747Z,3.67
2019-03-15T02:42:06.867Z,4.47
2019-03-15T02:44:35.295Z,4.00
2019-03-15T02:47:03.745Z,3.90
2019-03-15T02:49:32.156Z,3.65
2019-03-15T02:52:00.765Z,3.72
2019-03-15T02:54:29.249Z,3.65
2019-03-15T02:56:57.729Z,3.60
2019-03-15T02:59:26.175Z,4.45
2019-03-15T03:01:54.613Z,4.20
2019-03-15T03:04:23.187Z,3.92
2019-03-15T03:06:51.652Z,4.42
2019-03-15T03:09:20.098Z,4.37
2019-03-15T03:11:50.322Z,5.40
2019-03-15T03:14:18.813Z,4.25
2019-03-15T03:16:47.324Z,4.45
2019-03-15T03:19:17.410Z,5.40
2019-03-15T03:21:45.831Z,4.42
2019-03-15T03:24:14.290Z,5.95
2019-03-15T03:26:42.744Z,5.08
2019-03-15T03:29:11.198Z,5.37
2019-03-15T03:31:39.747Z,5.10
2019-03-15T03:34:08.600Z,5.10
2019-03-15T03:36:37.210Z,5.17
2019-03-15T03:39:10.096Z,5.35
2019-03-15T03:41:38.578Z,5.65
2019-03-15T03:44:07.006Z,5.85
2019-03-15T03:46:35.520Z,5.90
2019-03-15T03:49:03.971Z,6.33
2019-03-15T03:51:32.431Z,6.30
2019-03-15T03:54:00.850Z,5.97
2019-03-15T03:56:29.311Z,6.10
2019-03-15T03:58:57.924Z,5.78
2019-03-15T04:01:26.732Z,6.47
2019-03-15T04:03:55.240Z,7.03
2019-03-15T04:06:23.699Z,6.17
2019-03-15T04:08:52.211Z,5.62
2019-03-15T04:11:20.651Z,5.85
2019-03-15T04:13:49.074Z,6.47
2019-03-15T04:16:20.212Z,6.30
2019-03-15T04:18:48.638Z,6.28
2019-03-15T04:21:17.065Z,5.92
2019-03-15T04:23:45.498Z,5.33
2019-03-15T04:26:13.906Z,6.53
2019-03-15T04:28:42.498Z,6.05
2019-03-15T04:31:10.919Z,5.83
2019-03-15T04:33:39.342Z,5.97
2019-03-15T04:36:07.802Z,6.25
2019-03-15T04:38:36.244Z,6.85
2019-03-15T04:41:04.770Z,6.15
2019-03-15T04:43:33.246Z,5.62
2019-03-15T04:46:01.665Z,6.47
2019-03-15T04:48:30.137Z,5.75
2019-03-15T04:50:58.556Z,6.15
2019-03-15T04:53:27.024Z,5.90
2019-03-15T04:55:55.446Z,5.58
2019-03-15T04:58:23.850Z,6.05
2019-03-15T05:00:52.292Z,6.08
2019-03-15T05:03:20.739Z,6.87
2019-03-15T05:06:01.933Z,6.15
2019-03-15T05:08:19.354Z,5.00
2019-03-15T05:10:47.812Z,5.72
2019-03-15T05:13:16.242Z,7.05
2019-03-15T05:15:44.683Z,6.70
2019-03-15T05:18:13.110Z,7.10
2019-03-15T05:20:41.534Z,7.00
2019-03-15T05:23:09.987Z,6.08
2019-03-15T05:25:38.454Z,6.58
2019-03-15T05:28:07.005Z,6.90
2019-03-15T05:30:36.039Z,6.80
2019-03-15T05:33:04.444Z,7.10
2019-03-15T05:35:32.964Z,7.33
2019-03-15T05:38:01.405Z,7.47
2019-03-15T05:40:29.858Z,7.90
2019-03-15T05:42:58.344Z,7.47
2019-03-15T05:45:26.783Z,7.65
2019-03-15T05:47:55.288Z,8.00
2019-03-15T05:50:23.733Z,8.55
2019-03-15T05:52:52.168Z,9.00
2019-03-15T05:55:20.609Z,8.98
2019-03-15T05:57:49.041Z,10.00
2019-03-15T06:00:17.636Z,9.60
2019-03-15T06:02:46.094Z,9.23
2019-03-15T06:05:14.510Z,8.80
2019-03-15T06:07:44.343Z,9.00
2019-03-15T06:10:13.493Z,9.60
2019-03-15T06:12:43.500Z,9.70
2019-03-15T06:15:12.537Z,9.58
2019-03-15T06:17:40.987Z,9.18
2019-03-15T06:20:30.273Z,8.58
2019-03-15T06:22:58.737Z,8.80
2019-03-15T06:25:27.394Z,10.25
2019-03-15T06:27:55.832Z,9.75
2019-03-15T06:30:24.291Z,9.73
2019-03-15T06:32:52.740Z,9.88
2019-03-15T06:35:21.268Z,10.88
2019-03-15T06:37:49.766Z,10.90
2019-03-15T06:40:18.230Z,10.88
2019-03-15T06:42:46.709Z,11.60
2019-03-15T06:45:15.397Z,12.82
2019-03-15T06:47:43.826Z,11.97
2019-03-15T06:50:13.682Z,12.13
2019-03-15T06:52:42.471Z,12.93
2019-03-15T06:55:11.051Z,12.78
2019-03-15T06:57:39.494Z,12.80
2019-03-15T07:00:17.583Z,12.37
2019-03-15T07:02:46.348Z,13.05
2019-03-15T07:05:15.152Z,13.25
2019-03-15T07:07:43.719Z,13.95
2019-03-15T07:10:12.896Z,12.25
2019-03-15T07:12:41.382Z,11.63
2019-03-15T07:15:11.546Z,12.55
2019-03-15T07:17:39.990Z,12.40
2019-03-15T07:20:11.488Z,11.88
2019-03-15T07:22:39.995Z,12.55
2019-03-15T07:25:09.718Z,11.05
2019-03-15T07:27:38.242Z,10.80
2019-03-15T07:30:14.584Z,13.10
2019-03-15T07:32:43.072Z,11.90
2019-03-15T07:35:11.590Z,11.33
2019-03-15T07:37:40.036Z,11.55
2019-03-15T07:40:10.272Z,12.28
2019-03-15T07:42:38.966Z,11.73
2019-03-15T07:45:09.765Z,12.13
2019-03-15T07:47:38.329Z,11.85
2019-03-15T07:50:09.933Z,12.53
2019-03-15T07:52:38.475Z,11.40
2019-03-15T07:55:08.634Z,10.38
2019-03-15T07:57:38.615Z,10.28
2019-03-15T08:00:15.228Z,9.90
2019-03-15T08:02:43.678Z,8.98
2019-03-15T08:05:15.105Z,9.53
2019-03-15T08:07:45.619Z,9.08
2019-03-15T08:10:13.964Z,9.75
2019-03-15T08:12:42.738Z,10.20
2019-03-15T08:15:13.162Z,9.73
2019-03-15T08:17:41.701Z,10.28
2019-03-15T08:20:11.981Z,10.53
2019-03-15T08:22:40.620Z,11.83
2019-03-15T08:25:10.769Z,11.20
2019-03-15T08:27:39.295Z,10.65
2019-03-15T08:30:35.491Z,10.15
2019-03-15T08:33:09.992Z,9.93
2019-03-15T08:35:34.133Z,9.48
2019-03-15T08:38:05.319Z,9.50
2019-03-15T08:40:32.884Z,9.75
2019-03-15T08:43:01.443Z,10.00
2019-03-15T08:45:29.864Z,10.45
2019-03-15T08:47:58.342Z,11.00
2019-03-15T08:50:26.770Z,10.72
2019-03-15T08:52:55.263Z,11.30
2019-03-15T08:55:24.034Z,12.03
2019-03-15T08:57:52.566Z,12.82
2019-03-15T09:00:33.138Z,12.65
2019-03-15T09:03:01.695Z,11.50
2019-03-15T09:05:30.113Z,13.08
2019-03-15T09:07:58.623Z,12.88
2019-03-15T09:10:27.221Z,12.78
2019-03-15T09:12:55.682Z,12.35
2019-03-15T09:15:24.285Z,12.15
2019-03-15T09:17:53.150Z,11.53
2019-03-15T09:20:21.655Z,12.07
2019-03-15T09:22:50.110Z,11.48
2019-03-15T09:25:20.741Z,9.53
2019-03-15T09:27:49.386Z,10.25
2019-03-15T09:30:23.820Z,10.23
2019-03-15T09:32:48.102Z,9.33
2019-03-15T09:35:16.589Z,8.28
2019-03-15T09:37:47.400Z,7.30
2019-03-15T09:40:16.172Z,7.65
2019-03-15T09:42:44.655Z,8.00
2019-03-15T09:45:17.518Z,7.42
2019-03-15T09:47:46.080Z,7.15
2019-03-15T09:50:26.420Z,6.17
2019-03-15T09:52:46.058Z,6.60
2019-03-15T09:55:14.986Z,6.22
2019-03-15T09:57:43.510Z,6.03
2019-03-15T10:00:16.360Z,5.83
2019-03-15T10:02:48.042Z,5.80
2019-03-15T10:05:35.805Z,5.90
2019-03-15T10:08:09.333Z,5.87
2019-03-15T10:10:37.765Z,5.55
2019-03-15T10:13:06.586Z,6.05
2019-03-15T10:15:35.112Z,5.53
2019-03-15T10:18:03.603Z,5.60
2019-03-15T10:20:32.034Z,5.92
2019-03-15T10:23:05.986Z,5.33
2019-03-15T10:25:30.688Z,5.55
2019-03-15T10:27:59.110Z,5.03
2019-03-15T10:30:27.562Z,5.05
2019-03-15T10:32:56.093Z,5.17
2019-03-15T10:35:24.569Z,5.20
2019-03-15T10:37:53.024Z,4.85
2019-03-15T10:40:22.787Z,5.10
2019-03-15T10:42:55.321Z,5.83
2019-03-15T10:45:22.627Z,5.40
2019-03-15T10:47:51.076Z,5.15
2019-03-15T10:50:20.073Z,5.22
2019-03-15T10:52:48.516Z,5.95
2019-03-15T10:55:20.554Z,5.92
2019-03-15T10:57:47.392Z,5.60
2019-03-15T11:00:20.774Z,5.78
2019-03-15T11:02:49.439Z,6.92
2019-03-15T11:05:18.026Z,6.40
2019-03-15T11:07:46.522Z,6.10
2019-03-15T11:10:15.057Z,5.85
2019-03-15T11:12:43.706Z,5.53
2019-03-15T11:15:16.020Z,5.00
2019-03-15T11:17:44.730Z,5.25
2019-03-15T11:20:14.926Z,4.90
2019-03-15T11:22:43.450Z,4.85
2019-03-15T11:25:12.319Z,4.45
2019-03-15T11:27:40.813Z,4.30
2019-03-15T11:30:34.195Z,4.37
2019-03-15T11:35:30.421Z,4.17
2019-03-15T11:38:02.466Z,4.15
2019-03-15T11:40:32.284Z,3.50
2019-03-15T11:43:00.690Z,3.25
2019-03-15T11:45:29.142Z,3.62
2019-03-15T11:48:04.749Z,3.05
2019-03-15T11:50:27.869Z,3.17
2019-03-15T11:52:56.294Z,3.10
2019-03-15T11:55:24.735Z,2.90
2019-03-15T11:57:55.543Z,3.10
2019-03-15T12:00:24.170Z,2.80
2019-03-15T12:02:52.625Z,3.02
2019-03-15T12:05:21.128Z,2.37
2019-03-15T12:07:49.569Z,2.55
2019-03-15T12:10:18.356Z,2.22
2019-03-15T12:12:46.865Z,2.47
2019-03-15T12:15:17.392Z,2.67
2019-03-15T12:17:45.940Z,2.47
2019-03-15T12:20:14.434Z,2.05
2019-03-15T12:22:42.928Z,1.40
2019-03-15T12:25:12.306Z,1.60
2019-03-15T12:27:40.739Z,1.02
2019-03-15T12:30:13.827Z,0.80
2019-03-15T12:35:11.305Z,0.70
2019-03-15T12:37:39.729Z,0.53
2019-03-15T12:40:10.533Z,0.50
2019-03-15T12:42:39.041Z,0.65
2019-03-15T12:45:11.519Z,0.62
2019-03-15T12:47:40.070Z,0.60
2019-03-15T12:50:12.428Z,0.55
2019-03-15T12:52:48.929Z,0.65
2019-03-15T12:55:13.126Z,0.60
2019-03-15T12:57:41.578Z,0.45
2019-03-15T13:00:22.327Z,0.50
2019-03-15T13:02:50.763Z,0.60
2019-03-15T13:05:19.176Z,0.60
2019-03-15T13:07:47.618Z,0.70
2019-03-15T13:10:18.368Z,1.40
2019-03-15T13:12:46.841Z,0.60
2019-03-15T13:15:16.794Z,0.70
2019-03-15T13:17:47.333Z,0.50
2019-03-15T13:20:16.727Z,0.72
2019-03-15T13:22:47.839Z,0.50
2019-03-15T13:25:16.315Z,0.40
2019-03-15T13:27:44.741Z,0.40
2019-03-15T13:30:15.352Z,0.33
2019-03-15T13:32:43.976Z,0.30
2019-03-15T13:35:12.865Z,0.20
2019-03-15T13:37:43.205Z,0.30
2019-03-15T13:40:16.279Z,0.25
2019-03-15T13:42:44.733Z,0.37
2019-03-15T13:45:15.294Z,0.40
2019-03-15T13:47:43.738Z,0.45
2019-03-15T13:50:18.071Z,0.30
2019-03-15T13:52:46.546Z,0.30
2019-03-15T13:55:15.127Z,0.20
2019-03-15T13:57:43.743Z,0.20
2019-03-15T14:00:14.198Z,0.35
2019-03-15T14:02:42.845Z,0.50
2019-03-15T14:05:11.708Z,0.40
2019-03-15T14:07:40.155Z,0.20
2019-03-15T14:10:10.895Z,0.30
2019-03-15T14:12:39.375Z,0.40
2019-03-15T14:15:21.898Z,0.30
2019-03-15T14:17:50.382Z,0.53
2019-03-15T14:20:18.812Z,0.40
2019-03-15T14:22:47.336Z,0.35
2019-03-15T14:25:26.964Z,0.40
2019-03-15T14:27:55.424Z,0.30
2019-03-15T14:30:23.950Z,0.90
2019-03-15T14:32:52.431Z,0.40
2019-03-15T14:35:20.858Z,0.47
2019-03-15T14:37:49.469Z,0.20
2019-03-15T14:40:18.136Z,0.28
2019-03-15T14:42:47.823Z,0.20
2019-03-15T14:45:16.630Z,0.30
2019-03-15T14:47:45.220Z,0.40
2019-03-15T14:50:14.666Z,0.30
2019-03-15T14:52:43.175Z,0.30
2019-03-15T14:55:13.095Z,0.35
2019-03-15T14:57:51.790Z,0.30
2019-03-15T15:00:19.557Z,0.35
2019-03-15T15:02:48.102Z,0.30
2019-03-15T15:05:16.649Z,4.08
2019-03-15T15:07:45.110Z,0.30
2019-03-15T15:10:17.402Z,0.45
2019-03-15T15:12:45.914Z,0.70
2019-03-15T15:15:17.441Z,0.40
2019-03-15T15:17:45.849Z,0.40
2019-03-15T15:20:14.370Z,0.30
2019-03-15T15:22:42.876Z,0.50
2019-03-15T15:25:13.554Z,0.30
2019-03-15T15:27:41.992Z,0.42
2019-03-15T15:30:15.412Z,0.60
2019-03-15T15:32:43.897Z,0.30
2019-03-15T15:35:13.079Z,0.20
2019-03-15T15:37:41.591Z,0.50
2019-03-15T15:40:15.046Z,0.40
2019-03-15T15:42:43.502Z,0.33
2019-03-15T15:45:13.584Z,0.30
2019-03-15T15:47:42.103Z,0.50
2019-03-15T15:50:15.145Z,0.40
2019-03-15T15:55:17.211Z,0.62
2019-03-15T15:57:45.714Z,0.42
2019-03-15T16:00:17.961Z,0.40
2019-03-15T16:02:46.507Z,0.60
2019-03-15T16:05:15.083Z,0.65
2019-03-15T16:07:43.622Z,0.60
2019-03-15T16:10:13.196Z,0.30
2019-03-15T16:12:41.943Z,0.40
2019-03-15T16:15:12.568Z,0.40
2019-03-15T16:17:41.029Z,0.30
2019-03-15T16:20:10.815Z,0.47
2019-03-15T16:22:39.308Z,0.35
2019-03-15T16:25:09.413Z,0.50
2019-03-15T16:27:37.923Z,0.50
2019-03-15T16:30:19.672Z,0.40
2019-03-15T16:32:48.263Z,0.45
2019-03-15T16:35:16.721Z,0.53
2019-03-15T16:37:45.176Z,0.40
2019-03-15T16:40:15.417Z,0.37
2019-03-15T16:42:44.028Z,0.80
2019-03-15T16:45:22.958Z,0.70
2019-03-15T16:47:51.406Z,0.30
2019-03-15T16:50:19.885Z,0.40
2019-03-15T16:52:48.353Z,0.45
2019-03-15T16:55:16.846Z,0.40
2019-03-15T16:57:45.281Z,0.40
2019-03-15T17:00:17.278Z,0.40
2019-03-15T17:02:45.802Z,0.60
2019-03-15T17:05:14.766Z,0.47
2019-03-15T17:07:43.294Z,0.40
2019-03-15T17:10:16.000Z,0.57
2019-03-15T17:12:44.681Z,0.50
2019-03-15T17:15:18.749Z,0.50
2019-03-15T17:17:47.243Z,0.70
2019-03-15T17:20:15.686Z,0.60
2019-03-15T17:22:44.106Z,0.60
2019-03-15T17:25:13.087Z,0.70
2019-03-15T17:27:41.608Z,0.53
2019-03-15T17:30:29.460Z,0.70
2019-03-15T17:32:57.899Z,0.68
2019-03-15T17:35:26.326Z,0.80
2019-03-15T17:37:54.746Z,0.70
2019-03-15T17:40:23.190Z,0.80
2019-03-15T17:42:51.626Z,0.90
2019-03-15T17:45:20.084Z,0.53
2019-03-15T17:47:48.583Z,0.72
2019-03-15T17:50:18.277Z,0.78
2019-03-15T17:52:46.751Z,1.20
2019-03-15T17:55:16.535Z,0.70
2019-03-15T17:57:45.888Z,0.70
2019-03-15T18:00:24.552Z,0.75
2019-03-15T18:02:52.998Z,0.82
2019-03-15T18:05:21.435Z,1.00
2019-03-15T18:07:50.245Z,0.80
2019-03-15T18:10:18.816Z,1.10
2019-03-15T18:12:47.491Z,1.37
2019-03-15T18:15:16.017Z,1.35
2019-03-15T18:17:44.464Z,1.50
2019-03-15T18:20:12.893Z,1.30
2019-03-15T18:22:41.428Z,1.37
2019-03-15T18:25:10.833Z,1.40
2019-03-15T18:27:39.410Z,1.35
2019-03-15T18:30:12.625Z,1.32
2019-03-15T18:32:41.112Z,1.32
2019-03-15T18:35:10.573Z,1.37
2019-03-15T18:37:39.109Z,1.40
2019-03-15T18:40:10.370Z,1.20
2019-03-15T18:42:41.831Z,1.22
2019-03-15T18:45:14.555Z,1.47
2019-03-15T18:47:43.154Z,1.40
2019-03-15T18:50:25.426Z,1.40
2019-03-15T18:52:54.003Z,1.52
2019-03-15T18:55:23.953Z,1.12
2019-03-15T18:57:52.562Z,1.75
2019-03-15T19:00:26.702Z,1.20
2019-03-15T19:02:55.132Z,1.70
2019-03-15T19:05:23.598Z,1.70
2019-03-15T19:07:52.044Z,1.55
2019-03-15T19:10:20.486Z,1.57
2019-03-15T19:12:48.917Z,1.67
2019-03-15T19:15:21.831Z,1.62
2019-03-15T19:17:50.389Z,1.70
2019-03-15T19:20:18.928Z,1.60
2019-03-15T19:22:47.481Z,1.50
2019-03-15T19:25:16.245Z,1.60
2019-03-15T19:27:44.852Z,1.37
2019-03-15T19:30:19.329Z,1.45
2019-03-15T19:32:47.841Z,1.62
2019-03-15T19:35:16.259Z,1.20
2019-03-15T19:37:44.995Z,1.10
2019-03-15T19:40:18.629Z,1.20
2019-03-15T19:42:47.140Z,1.02
2019-03-15T19:45:16.519Z,0.90
2019-03-15T19:47:45.175Z,0.98
2019-03-15T19:50:22.876Z,0.90
2019-03-15T19:52:51.374Z,0.95
2019-03-15T19:55:19.838Z,1.15
2019-03-15T19:57:48.254Z,1.07
2019-03-15T20:00:20.722Z,1.05
2019-03-15T20:02:49.216Z,1.45
2019-03-15T20:05:17.770Z,1.70
2019-03-15T20:07:46.669Z,1.30
2019-03-15T20:10:17.244Z,1.00
2019-03-15T20:12:46.071Z,1.10
2019-03-15T20:15:15.703Z,1.20
2019-03-15T20:17:44.489Z,1.10
2019-03-15T20:20:20.398Z,1.17
2019-03-15T20:22:49.014Z,1.30
2019-03-15T20:25:18.149Z,1.07
2019-03-15T20:27:46.728Z,1.30
2019-03-15T20:30:21.491Z,1.25
2019-03-15T20:32:49.434Z,0.90
2019-03-15T20:35:17.890Z,1.25
2019-03-15T20:37:46.393Z,1.00
2019-03-15T20:40:17.460Z,1.30
2019-03-15T20:42:45.924Z,1.20
2019-03-15T20:45:19.355Z,0.80
2019-03-15T20:47:47.778Z,1.00
2019-03-15T20:50:16.271Z,40.58
2019-03-15T20:52:44.822Z,1.20
2019-03-15T20:55:13.275Z,1.10
2019-03-15T20:57:41.712Z,0.80
2019-03-15T21:00:12.874Z,0.78
2019-03-15T21:02:41.365Z,0.82
2019-03-15T21:05:10.061Z,0.90
2019-03-15T21:07:38.618Z,0.53
2019-03-15T21:10:12.842Z,0.70
2019-03-15T21:12:41.355Z,0.50
2019-03-15T21:15:12.345Z,0.60
2019-03-15T21:17:41.003Z,0.45
2019-03-15T21:20:36.251Z,0.68
2019-03-15T21:23:04.781Z,0.40
2019-03-15T21:25:33.246Z,0.40
2019-03-15T21:28:01.720Z,0.40
2019-03-15T21:30:30.145Z,0.40
2019-03-15T21:32:58.615Z,0.40
2019-03-15T21:35:27.025Z,0.30
2019-03-15T21:37:55.486Z,0.30
2019-03-15T21:40:23.990Z,0.57
2019-03-15T21:42:52.432Z,0.40
2019-03-15T21:45:20.931Z,0.30
2019-03-15T21:47:49.421Z,0.33
2019-03-15T21:50:19.035Z,0.40
2019-03-15T21:52:47.463Z,0.40
2019-03-15T21:55:15.915Z,0.35
2019-03-15T21:57:44.330Z,0.50
2019-03-15T22:00:25.266Z,0.50
2019-03-15T22:02:53.767Z,0.40
2019-03-15T22:05:22.231Z,0.40
2019-03-15T22:07:50.694Z,0.40
2019-03-15T22:10:19.211Z,0.40
2019-03-15T22:12:47.698Z,0.60
2019-03-15T22:15:16.168Z,0.78
2019-03-15T22:17:44.628Z,0.40
2019-03-15T22:20:19.532Z,0.40
2019-03-15T22:22:48.065Z,0.30
2019-03-15T22:25:16.576Z,0.55
2019-03-15T22:27:45.012Z,0.60
2019-03-15T22:30:14.384Z,0.40
2019-03-15T22:32:42.869Z,0.50
2019-03-15T22:35:11.567Z,0.30
2019-03-15T22:37:40.058Z,0.30
2019-03-15T22:40:09.987Z,0.40
2019-03-15T22:42:38.637Z,0.23
2019-03-15T22:45:09.672Z,0.30
2019-03-15T22:47:38.156Z,0.50
2019-03-15T22:50:08.434Z,0.42
2019-03-15T22:52:36.939Z,0.45
2019-03-15T22:55:07.061Z,0.42
2019-03-15T22:57:35.515Z,0.37
2019-03-15T23:00:07.341Z,0.50
2019-03-15T23:02:35.923Z,0.40
2019-03-15T23:05:05.339Z,0.30
2019-03-15T23:07:33.755Z,0.45
2019-03-15T23:10:02.230Z,0.40
2019-03-15T23:12:30.692Z,0.53
2019-03-15T23:14:59.120Z,0.50
2019-03-15T23:17:27.579Z,0.40
2019-03-15T23:19:56.052Z,0.50
2019-03-15T23:22:24.487Z,0.40
2019-03-15T23:24:52.934Z,0.40
2019-03-15T23:27:21.398Z,0.30
2019-03-15T23:29:49.845Z,0.37
2019-03-15T23:32:18.359Z,0.50
2019-03-15T23:34:46.800Z,0.37
2019-03-15T23:37:15.253Z,0.20
2019-03-15T23:39:43.658Z,0.50
2019-03-15T23:42:12.218Z,0.30
2019-03-15T23:44:40.638Z,0.40
2019-03-15T23:47:09.090Z,0.40
2019-03-15T23:49:37.618Z,0.50
2019-03-15T23:52:06.112Z,0.37
2019-03-15T23:54:34.587Z,0.40
2019-03-15T23:57:03.010Z,0.40
2019-03-15T23:59:31.529Z,0.30
